EST,Max TemperatureF,Mean TemperatureF,Min TemperatureF,Max Dew PointF,MeanDew PointF,Min DewpointF,Max Humidity, Mean Humidity, Min Humidity, Max Sea Level PressureIn, Mean Sea Level PressureIn, Min Sea Level PressureIn, Max VisibilityMiles, Mean VisibilityMiles, Min VisibilityMiles, Max Wind SpeedMPH, Mean Wind SpeedMPH, Max Gust SpeedMPH,PrecipitationIn, CloudCover, Events, WindDirDegrees
2013-1-1,32,26,20,31,25,16,92,83,74,30.20,30.11,30.04,9,5,2,14,5,15,T,8,,353
2013-1-2,25,13,1,13,7,-2,92,71,50,30.29,30.24,30.19,10,8,4,6,1,7,0.00,0,,226
2013-1-3,33,18,3,23,14,-1,86,74,61,30.36,30.29,30.23,10,9,7,10,5,15,0.00,3,,253
2013-1-4,31,24,17,23,20,14,92,75,58,30.39,30.35,30.30,10,9,4,17,7,24,0.00,3,,258
2013-1-5,39,24,9,28,20,7,92,70,48,30.36,30.28,30.15,10,7,2,16,5,22,T,4,Snow,204
2013-1-6,37,30,22,31,25,19,82,73,64,30.39,30.18,30.05,10,8,5,18,8,28,0.00,7,,266
2013-1-7,37,24,10,24,16,7,100,83,59,30.47,30.38,30.24,10,5,0,13,1,17,0.00,0,Fog,156
2013-1-8,45,31,17,30,23,14,92,71,49,30.29,30.24,30.21,10,8,3,12,4,16,0.00,0,,165
2013-1-9,51,41,30,40,35,29,100,73,46,30.51,30.34,30.20,10,8,2,17,5,26,0.00,4,Rain,243
2013-1-10,47,38,29,45,36,27,96,80,64,30.50,30.26,30.01,10,6,2,17,8,24,0.14,6,Rain,120
2013-1-11,59,53,47,54,51,46,100,86,72,29.99,29.89,29.84,10,6,0,26,11,31,0.82,6,Fog-Rain,184
2013-1-12,66,61,55,61,55,47,93,80,67,29.99,29.87,29.67,10,7,1,21,8,28,1.16,6,Rain,199
2013-1-13,65,45,25,61,37,20,93,87,81,30.24,29.91,29.64,10,5,1,21,7,28,1.73,8,Rain,324
2013-1-14,26,22,18,19,16,12,88,81,74,30.46,30.38,30.26,10,9,7,12,6,15,0.00,5,,347
2013-1-15,34,27,19,24,19,15,84,70,56,30.39,30.27,30.09,10,8,5,13,7,17,0.00,3,,42
2013-1-16,35,32,29,25,22,19,85,71,56,30.11,30.07,30.01,10,9,6,13,5,16,0.00,5,,252
2013-1-17,43,34,24,31,24,18,85,68,50,30.43,30.24,30.11,10,10,9,18,6,24,0.00,2,,344
2013-1-18,42,30,18,24,19,14,92,67,41,30.52,30.40,30.20,10,10,9,20,7,25,0.00,0,,189
2013-1-19,54,46,38,36,28,21,65,53,41,30.19,30.06,29.92,10,10,10,26,15,35,0.00,0,,222
2013-1-20,45,35,24,36,14,6,76,54,32,30.28,30.19,29.99,10,10,10,22,8,32,0.00,2,,307
2013-1-21,24,18,12,16,7,-4,74,59,43,30.32,30.22,30.16,10,10,10,22,10,31,T,4,,291
2013-1-22,18,12,5,0,-3,-5,69,56,43,30.44,30.38,30.32,10,10,10,15,6,22,0.00,1,,282
2013-1-23,31,20,9,17,8,0,73,56,39,30.39,30.26,30.14,10,10,6,15,5,21,0.00,4,,236
2013-1-24,26,19,11,14,4,-5,73,50,27,30.60,30.44,30.22,10,10,2,17,8,24,T,2,Snow,30
2013-1-25,30,25,20,18,12,0,74,57,39,30.35,30.15,30.06,10,8,1,16,7,21,0.02,6,Snow,192
2013-1-26,35,26,17,18,15,12,84,61,38,30.43,30.32,30.17,10,10,5,10,4,14,0.00,0,,8
2013-1-27,40,31,21,38,24,15,92,72,52,30.40,30.26,30.07,10,6,2,15,9,21,0.19,5,Rain,139
2013-1-28,58,49,39,55,48,37,96,84,71,30.10,30.03,29.99,10,4,2,28,13,41,0.40,8,Rain,202
2013-1-29,67,62,56,57,54,51,86,79,72,30.00,29.82,29.43,10,8,4,28,16,38,0.00,7,,192
2013-1-30,68,48,27,57,42,20,96,82,68,29.70,29.42,29.29,10,7,2,39,14,63,0.99,8,Rain-Snow,260
2013-1-31,31,21,10,22,14,-2,81,67,53,30.19,29.94,29.73,10,6,0,28,15,38,0.01,7,Fog-Snow,284